Time;durP1;ratioP1;P1;durP2;ratioP2;P2;SDS_P1;SDS_P2;PMS_P1;PMS_P2;Temp;Humidity;BMP_temperature;BMP_pressure;BME280_temperature;BME280_humidity;BME280_pressure;Samples;Min_cycle;Max_cycle;Signal;HPM_P1;HPM_P2
2021/04/23 00:01:57;;;;;;;29.60;9.25;;;9.20;56.70;;;;;;5034391;28;20052;-67
2021/04/23 00:04:25;;;;;;;30.40;8.15;;;9.30;56.80;;;;;;5048735;28;20036;-65
2021/04/23 00:06:55;;;;;;;29.48;8.63;;;9.30;57.00;;;;;;5051447;28;20036;-65
2021/04/23 00:09:25;;;;;;;32.85;8.85;;;9.40;57.00;;;;;;5052792;28;20040;-65
2021/04/23 00:12:08;;;;;;;32.78;8.43;;;9.50;57.10;;;;;;5054837;28;20040;-65
2021/04/23 00:14:35;;;;;;;30.63;8.80;;;9.60;57.00;;;;;;5060816;28;20062;-65
2021/04/23 00:17:01;;;;;;;20.42;8.15;;;9.70;57.00;;;;;;5048833;28;20500;-66
2021/04/23 00:19:28;;;;;;;23.20;7.50;;;9.80;56.90;;;;;;5058185;28;20036;-65
2021/04/23 00:21:55;;;;;;;33.60;8.82;;;9.90;56.80;;;;;;5059099;28;20060;-64
2021/04/23 00:24:22;;;;;;;20.85;7.47;;;9.90;56.80;;;;;;5058697;28;20089;-64
2021/04/23 00:26:50;;;;;;;24.73;7.55;;;10.00;56.60;;;;;;5062028;28;20028;-65
2021/04/23 00:29:19;;;;;;;33.67;8.82;;;10.00;56.50;;;;;;5061716;28;20047;-65
2021/04/23 00:31:49;;;;;;;18.75;7.78;;;10.10;56.50;;;;;;5042618;28;20032;-65
2021/04/23 00:34:14;;;;;;;20.00;7.55;;;10.10;56.40;;;;;;5037707;28;20594;-65
2021/04/23 00:36:42;;;;;;;24.52;7.93;;;10.20;56.40;;;;;;5040364;28;20032;-65
2021/04/23 00:39:07;;;;;;;25.25;8.10;;;10.20;57.00;;;;;;5057803;28;20036;-65
2021/04/23 00:41:36;;;;;;;20.38;7.40;;;10.30;56.40;;;;;;5051870;28;20028;-65
2021/04/23 00:44:05;;;;;;;32.30;8.30;;;10.30;56.40;;;;;;5032874;28;20163;-66
2021/04/23 00:46:33;;;;;;;21.90;7.32;;;10.30;56.30;;;;;;5055806;28;20089;-65
2021/04/23 00:48:59;;;;;;;29.73;8.48;;;10.40;56.30;;;;;;5059024;28;20051;-65
2021/04/23 00:51:33;;;;;;;26.67;7.72;;;10.40;56.20;;;;;;5055232;28;20044;-65
2021/04/23 00:54:05;;;;;;;29.52;7.65;;;10.40;56.10;;;;;;5052228;28;20409;-65
2021/04/23 00:56:35;;;;;;;19.05;7.22;;;10.40;56.00;;;;;;5057293;28;20064;-65
2021/04/23 00:59:01;;;;;;;30.35;8.02;;;10.40;56.00;;;;;;5051123;28;20040;-65
2021/04/23 01:01:36;;;;;;;18.48;8.10;;;10.40;56.00;;;;;;5038550;28;20039;-65
2021/04/23 01:04:06;;;;;;;21.17;6.97;;;10.50;56.00;;;;;;5049968;28;20433;-66
2021/04/23 01:06:33;;;;;;;17.77;7.32;;;10.50;56.00;;;;;;5050240;28;20586;-65
2021/04/23 01:09:08;;;;;;;26.40;7.65;;;10.50;56.00;;;;;;5049859;28;20032;-65
2021/04/23 01:11:38;;;;;;;25.60;7.68;;;10.50;55.90;;;;;;5041490;28;20071;-65
2021/04/23 01:14:04;;;;;;;22.13;6.95;;;10.60;55.90;;;;;;5039005;28;20027;-66
2021/04/23 01:16:30;;;;;;;23.13;6.60;;;10.60;55.80;;;;;;5051095;28;20028;-65
2021/04/23 01:18:56;;;;;;;34.17;7.82;;;10.60;55.80;;;;;;5048101;28;20597;-66
2021/04/23 01:21:28;;;;;;;20.98;7.43;;;10.60;55.70;;;;;;5061534;28;21049;-66
2021/04/23 01:23:57;;;;;;;21.75;7.10;;;10.60;55.70;;;;;;5048126;28;20127;-65
2021/04/23 01:26:27;;;;;;;16.88;6.85;;;10.60;55.70;;;;;;5024377;28;20039;-67
2021/04/23 01:28:54;;;;;;;24.73;7.80;;;10.70;55.70;;;;;;5055709;28;20499;-65
2021/04/23 01:31:24;;;;;;;23.67;6.93;;;10.70;55.70;;;;;;5031769;28;20046;-66
2021/04/23 01:33:56;;;;;;;23.98;6.57;;;10.70;55.70;;;;;;5055835;28;21204;-65
2021/04/23 01:36:24;;;;;;;20.35;6.57;;;10.70;55.70;;;;;;5039805;28;20240;-65
2021/04/23 01:38:50;;;;;;;22.63;6.88;;;10.70;55.60;;;;;;5045693;28;20088;-65
2021/04/23 01:41:20;;;;;;;14.60;6.18;;;10.70;55.60;;;;;;5053230;28;20044;-65
2021/04/23 01:43:47;;;;;;;24.17;5.97;;;10.70;55.70;;;;;;5044397;28;20078;-65
2021/04/23 01:46:13;;;;;;;17.23;6.88;;;10.70;55.70;;;;;;5056124;28;20047;-66
2021/04/23 01:48:39;;;;;;;21.65;7.43;;;10.80;55.60;;;;;;5054989;28;20418;-65
2021/04/23 01:51:09;;;;;;;20.90;6.20;;;10.80;55.80;;;;;;5045888;28;20473;-65
2021/04/23 01:53:39;;;;;;;18.95;6.45;;;10.80;55.50;;;;;;5050260;28;20583;-66
2021/04/23 01:56:06;;;;;;;15.88;5.65;;;10.80;55.40;;;;;;5052587;28;23799;-66
2021/04/23 01:58:39;;;;;;;32.22;6.78;;;10.90;55.40;;;;;;5059190;28;20523;-65
2021/04/23 02:01:07;;;;;;;23.02;6.95;;;10.90;55.40;;;;;;5064452;28;20137;-65
2021/04/23 02:03:33;;;;;;;16.58;5.45;;;10.90;55.40;;;;;;5041671;28;20098;-66
2021/04/23 02:05:59;;;;;;;14.15;5.78;;;10.90;55.30;;;;;;5051657;28;20097;-67
2021/04/23 02:08:28;;;;;;;22.42;6.50;;;10.90;55.20;;;;;;5047758;28;20047;-65
2021/04/23 02:11:11;;;;;;;26.20;5.97;;;10.80;55.20;;;;;;5034810;28;20484;-66
2021/04/23 02:13:38;;;;;;;19.88;6.10;;;10.80;55.30;;;;;;5033277;28;20549;-65
2021/04/23 02:16:06;;;;;;;20.25;6.97;;;10.80;55.30;;;;;;5048850;28;20266;-66
2021/04/23 02:18:34;;;;;;;26.55;6.40;;;10.80;55.30;;;;;;5047929;28;20060;-65
2021/04/23 02:21:00;;;;;;;22.17;6.32;;;10.70;55.30;;;;;;5048325;28;20051;-65
2021/04/23 02:23:26;;;;;;;27.17;6.50;;;10.70;55.30;;;;;;5050790;28;20337;-65
2021/04/23 02:25:57;;;;;;;16.08;6.22;;;10.70;55.40;;;;;;5031009;28;20040;-66
2021/04/23 02:28:26;;;;;;;20.52;6.35;;;10.70;55.40;;;;;;5056967;28;20033;-65
2021/04/23 02:30:57;;;;;;;24.25;6.55;;;10.70;55.40;;;;;;5053483;28;20639;-66
2021/04/23 02:33:26;;;;;;;17.95;6.35;;;10.80;55.40;;;;;;5052796;28;20094;-65
2021/04/23 02:35:55;;;;;;;19.58;5.38;;;10.80;55.40;;;;;;5052873;28;20086;-65
2021/04/23 02:38:22;;;;;;;15.32;7.55;;;10.80;55.40;;;;;;5034698;28;20059;-65
2021/04/23 02:40:51;;;;;;;21.60;6.55;;;10.80;55.30;;;;;;5057052;28;20055;-66
2021/04/23 02:43:29;;;;;;;18.08;5.60;;;10.80;55.10;;;;;;5055195;28;20043;-65
2021/04/23 02:45:57;;;;;;;20.02;5.80;;;10.70;54.90;;;;;;5053275;28;20447;-64
2021/04/23 02:48:25;;;;;;;15.98;5.20;;;10.60;54.80;;;;;;5054646;28;20547;-65
2021/04/23 02:50:57;;;;;;;17.77;6.38;;;10.50;54.80;;;;;;5054378;28;20555;-68
2021/04/23 02:53:22;;;;;;;16.08;6.95;;;10.40;54.80;;;;;;5054378;28;20050;-66
2021/04/23 02:55:48;;;;;;;21.45;5.55;;;10.30;55.00;;;;;;5052099;28;20051;-66
2021/04/23 02:58:19;;;;;;;18.00;6.45;;;10.20;55.00;;;;;;5047815;28;20539;-65
2021/04/23 03:00:52;;;;;;;21.83;6.13;;;10.10;55.10;;;;;;5055203;28;20642;-66
2021/04/23 03:03:19;;;;;;;20.15;5.53;;;10.00;55.20;;;;;;5046489;28;20073;-67
2021/04/23 03:05:48;;;;;;;15.15;5.53;;;9.90;55.20;;;;;;5057642;28;20405;-65
2021/04/23 03:08:18;;;;;;;13.25;5.65;;;9.80;55.40;;;;;;5049087;28;20463;-67
2021/04/23 03:10:55;;;;;;;22.70;6.20;;;9.80;55.40;;;;;;5045434;28;20253;-66
2021/04/23 03:13:25;;;;;;;18.52;6.38;;;9.70;55.30;;;;;;5030086;28;20048;-65
2021/04/23 03:15:53;;;;;;;15.57;5.18;;;9.60;55.30;;;;;;5028757;28;20048;-66
2021/04/23 03:18:21;;;;;;;17.00;5.95;;;9.60;55.40;;;;;;5048741;28;20516;-65
2021/04/23 03:20:50;;;;;;;12.63;5.80;;;9.50;55.50;;;;;;5051394;28;20123;-66
2021/04/23 03:23:18;;;;;;;15.98;6.13;;;9.40;55.50;;;;;;5047714;28;20427;-65
2021/04/23 03:25:44;;;;;;;24.48;6.72;;;9.30;55.60;;;;;;5041458;28;20099;-65
2021/04/23 03:28:12;;;;;;;16.05;5.72;;;9.30;55.80;;;;;;5026768;28;20070;-65
2021/04/23 03:30:40;;;;;;;19.20;6.60;;;9.20;56.00;;;;;;5046834;28;20043;-65
2021/04/23 03:33:10;;;;;;;14.57;5.32;;;9.20;56.20;;;;;;5045828;28;20048;-65
2021/04/23 03:35:36;;;;;;;20.83;6.10;;;9.20;56.40;;;;;;5053864;28;20115;-66
2021/04/23 03:38:09;;;;;;;13.60;6.20;;;9.20;56.30;;;;;;5041846;28;20155;-65
2021/04/23 03:40:39;;;;;;;25.30;6.47;;;9.20;56.30;;;;;;5045641;28;20048;-65
2021/04/23 03:43:06;;;;;;;24.40;6.10;;;9.10;56.30;;;;;;5044419;28;22423;-65
2021/04/23 03:45:35;;;;;;;22.77;5.88;;;9.10;56.50;;;;;;5054005;28;20565;-65
2021/04/23 03:48:05;;;;;;;28.00;7.20;;;9.10;56.90;;;;;;5045100;28;20478;-65
2021/04/23 03:50:32;;;;;;;20.10;6.68;;;9.20;57.20;;;;;;5042508;28;20079;-65
2021/04/23 03:53:00;;;;;;;19.63;6.68;;;9.30;57.40;;;;;;5031922;28;20039;-66
2021/04/23 03:55:35;;;;;;;26.98;7.20;;;9.30;57.40;;;;;;5043739;28;20056;-66
2021/04/23 03:58:03;;;;;;;18.05;5.75;;;9.50;57.50;;;;;;5049152;28;20044;-66
2021/04/23 04:00:54;;;;;;;23.13;7.05;;;9.50;57.40;;;;;;5045389;28;20510;-66
2021/04/23 04:03:22;;;;;;;26.48;7.38;;;9.60;57.20;;;;;;5048723;28;20097;-66
2021/04/23 04:05:48;;;;;;;18.73;6.55;;;9.60;57.10;;;;;;5043148;28;20844;-66
2021/04/23 04:08:14;;;;;;;18.73;5.90;;;9.60;57.30;;;;;;5050517;28;20044;-66
2021/04/23 04:10:41;;;;;;;24.52;6.60;;;9.70;57.50;;;;;;5058409;28;20056;-66
2021/04/23 04:13:07;;;;;;;14.20;5.93;;;9.70;57.40;;;;;;5040525;28;20050;-66
2021/04/23 04:15:34;;;;;;;21.20;6.20;;;9.70;57.50;;;;;;5058517;28;20044;-65
2021/04/23 04:18:02;;;;;;;26.73;6.80;;;9.70;57.00;;;;;;5052944;28;20843;-66
2021/04/23 04:20:30;;;;;;;14.68;5.70;;;9.70;57.00;;;;;;5052702;28;20048;-66
2021/04/23 04:22:59;;;;;;;21.13;6.68;;;9.70;57.10;;;;;;5040907;28;20040;-66
2021/04/23 04:25:29;;;;;;;18.95;6.55;;;9.70;57.00;;;;;;5059399;28;20052;-65
2021/04/23 04:27:56;;;;;;;16.60;6.68;;;9.70;56.90;;;;;;5059284;28;20102;-66
2021/04/23 04:30:26;;;;;;;18.73;6.70;;;9.60;56.90;;;;;;5062726;28;20126;-65
2021/04/23 04:32:56;;;;;;;28.92;6.15;;;9.60;57.00;;;;;;5062251;28;20128;-65
2021/04/23 04:35:25;;;;;;;19.02;6.25;;;9.60;57.10;;;;;;5052323;28;20040;-65
2021/04/23 04:37:51;;;;;;;16.08;6.00;;;9.50;57.00;;;;;;5043904;28;20131;-65
2021/04/23 04:40:17;;;;;;;21.95;7.50;;;9.50;57.00;;;;;;5053752;28;20040;-65
2021/04/23 04:42:43;;;;;;;13.43;5.82;;;9.50;57.60;;;;;;5052851;28;20039;-65
2021/04/23 04:45:18;;;;;;;19.83;7.18;;;9.50;57.20;;;;;;5050749;28;20064;-65
2021/04/23 04:47:46;;;;;;;19.65;6.28;;;9.50;57.30;;;;;;5039324;28;20050;-65
2021/04/23 04:50:20;;;;;;;22.48;7.32;;;9.50;57.60;;;;;;5049297;28;20110;-65
2021/04/23 04:52:46;;;;;;;26.30;6.60;;;9.60;57.80;;;;;;5053738;28;20440;-65
2021/04/23 04:55:15;;;;;;;21.15;6.85;;;9.60;57.60;;;;;;5062331;28;20096;-65
2021/04/23 04:57:43;;;;;;;18.65;6.90;;;9.60;57.60;;;;;;5054154;28;20044;-65
2021/04/23 05:00:14;;;;;;;17.45;6.55;;;9.60;57.60;;;;;;5060586;28;20044;-65
2021/04/23 05:02:40;;;;;;;15.32;6.93;;;9.70;57.90;;;;;;5060875;28;20086;-65
2021/04/23 05:05:10;;;;;;;23.40;7.05;;;9.80;58.00;;;;;;5052251;28;20035;-66
2021/04/23 05:07:39;;;;;;;24.10;7.05;;;9.90;58.10;;;;;;5063826;28;20144;-65
2021/04/23 05:10:06;;;;;;;21.92;6.50;;;10.00;57.90;;;;;;5069254;28;20562;-65
2021/04/23 05:12:34;;;;;;;23.67;6.57;;;10.10;57.90;;;;;;5061602;28;20546;-65
2021/04/23 05:15:00;;;;;;;21.13;6.47;;;10.10;57.80;;;;;;5062521;28;20047;-65
2021/04/23 05:17:25;;;;;;;19.05;6.72;;;10.40;58.10;;;;;;5064757;28;20032;-65
2021/04/23 05:19:51;;;;;;;24.15;7.30;;;10.50;57.60;;;;;;5054134;28;20048;-65
2021/04/23 05:22:16;;;;;;;20.52;7.45;;;10.60;57.20;;;;;;5062157;28;20573;-65
2021/04/23 05:24:42;;;;;;;21.38;6.72;;;10.70;56.80;;;;;;5065225;28;20036;-65
2021/04/23 05:27:08;;;;;;;29.42;6.80;;;10.70;56.50;;;;;;5065091;28;20505;-65
2021/04/23 05:29:33;;;;;;;20.30;6.40;;;10.70;56.40;;;;;;5062225;28;20037;-65
2021/04/23 05:32:01;;;;;;;23.75;7.28;;;10.60;56.30;;;;;;5069388;28;20115;-64
2021/04/23 05:34:28;;;;;;;16.88;6.93;;;10.60;56.30;;;;;;5069967;28;20036;-64
2021/04/23 05:36:54;;;;;;;17.85;6.35;;;10.60;56.40;;;;;;5058759;28;20498;-65
2021/04/23 05:39:20;;;;;;;20.80;6.22;;;10.60;56.50;;;;;;5056130;28;20068;-65
2021/04/23 05:41:48;;;;;;;15.82;5.65;;;10.60;56.40;;;;;;5047469;28;20021;-64
2021/04/23 05:44:15;;;;;;;25.35;7.22;;;10.60;56.40;;;;;;5034015;28;20417;-65
2021/04/23 05:46:41;;;;;;;20.45;6.95;;;10.70;57.20;;;;;;5047394;28;20119;-65
2021/04/23 05:49:07;;;;;;;18.35;6.18;;;11.10;57.90;;;;;;5055124;28;20092;-65
2021/04/23 05:51:33;;;;;;;22.52;5.93;;;11.90;57.70;;;;;;5060025;28;20068;-65
2021/04/23 05:53:59;;;;;;;18.77;6.05;;;12.50;56.30;;;;;;5053615;28;20040;-65
2021/04/23 05:56:25;;;;;;;14.65;6.00;;;12.90;54.80;;;;;;5047280;28;20767;-65
2021/04/23 05:58:53;;;;;;;23.80;6.15;;;13.00;53.80;;;;;;5042315;28;20040;-65
2021/04/23 06:01:19;;;;;;;19.98;6.38;;;13.00;53.10;;;;;;5058928;28;20253;-65
2021/04/23 06:03:45;;;;;;;13.80;5.72;;;12.90;52.80;;;;;;5050791;28;20039;-65
2021/04/23 06:06:10;;;;;;;19.70;6.43;;;12.90;53.10;;;;;;5055404;28;20040;-65
2021/04/23 06:08:36;;;;;;;19.55;6.78;;;12.90;52.80;;;;;;5038598;28;20047;-65
2021/04/23 06:11:01;;;;;;;17.52;5.90;;;12.80;52.50;;;;;;5052455;28;20386;-66
2021/04/23 06:13:27;;;;;;;17.58;6.47;;;12.70;52.40;;;;;;5059645;28;20046;-65
2021/04/23 06:15:53;;;;;;;16.42;6.68;;;12.80;52.80;;;;;;5050386;28;20763;-65
2021/04/23 06:18:21;;;;;;;22.25;6.68;;;13.00;52.80;;;;;;5057358;28;20032;-65
2021/04/23 06:20:48;;;;;;;18.73;6.97;;;13.20;52.50;;;;;;5037665;28;20066;-65
2021/04/23 06:23:18;;;;;;;14.13;5.97;;;13.40;52.20;;;;;;5053828;28;20050;-65
2021/04/23 06:25:45;;;;;;;28.58;6.75;;;13.50;51.90;;;;;;5048469;28;20713;-65
2021/04/23 06:28:11;;;;;;;21.42;5.85;;;13.50;51.60;;;;;;5048462;28;20164;-65
2021/04/23 06:30:40;;;;;;;15.63;5.85;;;13.70;51.50;;;;;;5050108;28;22082;-65
2021/04/23 06:33:43;;;;;;;15.63;6.50;;;13.80;51.30;;;;;;5055752;28;20049;-65
2021/04/23 06:36:02;;;;;;;17.75;6.05;;;13.90;51.20;;;;;;5046040;28;20039;-65
2021/04/23 06:38:28;;;;;;;14.88;5.28;;;14.20;50.80;;;;;;5054853;28;20040;-65
2021/04/23 06:40:53;;;;;;;18.02;5.20;;;14.30;50.30;;;;;;5049815;28;20050;-65
2021/04/23 06:43:21;;;;;;;18.80;6.82;;;14.20;49.60;;;;;;5035745;28;20520;-65
2021/04/23 06:45:49;;;;;;;16.92;5.85;;;14.20;49.50;;;;;;5035337;28;20117;-66
2021/04/23 06:48:15;;;;;;;18.40;5.63;;;14.10;49.50;;;;;;5056676;28;21725;-65
2021/04/23 06:50:41;;;;;;;16.25;6.28;;;14.10;49.30;;;;;;5054200;28;20044;-65
2021/04/23 06:53:09;;;;;;;15.45;5.70;;;14.00;49.00;;;;;;5055041;28;20040;-65
2021/04/23 06:55:38;;;;;;;14.52;5.35;;;13.80;49.10;;;;;;5059877;28;20046;-66
2021/04/23 06:58:06;;;;;;;13.73;5.35;;;13.90;49.50;;;;;;5056704;28;20040;-66
2021/04/23 07:00:34;;;;;;;14.57;4.90;;;14.10;49.60;;;;;;5057374;28;20044;-65
2021/04/23 07:03:01;;;;;;;15.07;4.82;;;14.30;49.20;;;;;;5051502;28;20036;-63
2021/04/23 07:05:32;;;;;;;24.92;4.80;;;14.60;48.60;;;;;;5035001;28;20040;-65
2021/04/23 07:08:03;;;;;;;16.83;4.97;;;14.90;47.70;;;;;;5049808;28;20039;-65
2021/04/23 07:10:29;;;;;;;8.00;4.00;;;15.00;47.10;;;;;;5053853;28;20092;-65
2021/04/23 07:12:57;;;;;;;12.60;4.18;;;15.20;46.40;;;;;;5030868;28;20047;-65
2021/04/23 07:15:26;;;;;;;13.63;4.15;;;15.40;46.00;;;;;;5055728;28;20031;-66
2021/04/23 07:17:52;;;;;;;17.75;4.13;;;15.70;45.40;;;;;;5057158;28;20135;-65
2021/04/23 07:20:18;;;;;;;18.58;4.00;;;16.20;44.80;;;;;;5059776;28;20048;-65
2021/04/23 07:22:45;;;;;;;16.92;3.78;;;;;;;;;;5045477;28;20040;-65
2021/04/23 07:25:11;;;;;;;13.07;4.07;;;;;;;;;;5048624;28;22070;-65
2021/04/23 07:27:38;;;;;;;10.27;3.80;;;;;;;;;;5054456;28;20037;-65
2021/04/23 07:30:14;;;;;;;13.40;4.20;;;17.00;44.60;;;;;;5059842;28;20588;-65
2021/04/23 07:32:40;;;;;;;7.80;3.13;;;20.10;38.20;;;;;;5058502;28;20529;-65
2021/04/23 07:35:10;;;;;;;9.95;3.20;;;21.50;36.00;;;;;;5053615;28;20036;-66
2021/04/23 07:37:36;;;;;;;11.48;3.33;;;23.10;33.80;;;;;;5058684;28;20073;-65
2021/04/23 07:40:06;;;;;;;9.13;2.90;;;24.50;31.10;;;;;;5046763;28;20044;-66
2021/04/23 07:42:32;;;;;;;15.13;3.10;;;25.70;29.10;;;;;;5041593;28;20028;-66
2021/04/23 07:45:00;;;;;;;10.68;3.22;;;26.50;27.50;;;;;;5057417;28;20720;-65
2021/04/23 07:47:25;;;;;;;16.10;2.83;;;27.10;26.40;;;;;;5058813;28;20039;-66
2021/04/23 07:49:51;;;;;;;7.55;2.47;;;27.40;25.60;;;;;;5057713;28;20044;-65
2021/04/23 07:52:16;;;;;;;10.00;2.78;;;27.80;24.90;;;;;;5069402;28;20161;-65
2021/04/23 07:54:42;;;;;;;11.05;2.92;;;28.20;24.50;;;;;;5068728;28;20036;-66
2021/04/23 07:57:12;;;;;;;11.35;2.92;;;28.70;23.70;;;;;;5070083;28;20044;-66
2021/04/23 07:59:39;;;;;;;7.20;2.45;;;29.00;22.90;;;;;;5079554;28;20032;-66
2021/04/23 08:02:08;;;;;;;9.30;3.03;;;29.50;22.60;;;;;;5069650;28;20047;-66
2021/04/23 08:04:35;;;;;;;7.03;2.80;;;29.90;21.90;;;;;;5075671;28;20127;-66
2021/04/23 08:07:06;;;;;;;15.40;2.70;;;30.30;21.70;;;;;;5060658;28;20044;-66
2021/04/23 08:09:32;;;;;;;12.00;2.67;;;;;;;;;;5066502;28;20121;-66
2021/04/23 08:12:05;;;;;;;10.38;2.70;;;30.70;21.20;;;;;;5068445;28;20134;-66
2021/04/23 08:14:33;;;;;;;10.80;3.10;;;30.70;20.70;;;;;;5066028;28;20051;-66
2021/04/23 08:17:01;;;;;;;13.25;2.88;;;30.40;20.50;;;;;;5053578;28;20048;-66
2021/04/23 08:19:27;;;;;;;7.55;2.67;;;30.40;20.60;;;;;;5067323;28;20041;-66
2021/04/23 08:21:52;;;;;;;9.18;2.72;;;30.60;20.50;;;;;;5063850;28;20055;-66
2021/04/23 08:24:23;;;;;;;10.57;2.80;;;31.00;20.50;;;;;;5061469;28;20151;-66
2021/04/23 08:26:51;;;;;;;7.93;2.30;;;31.50;20.50;;;;;;5059882;28;20708;-67
2021/04/23 08:29:16;;;;;;;7.20;2.55;;;32.00;20.00;;;;;;5060942;28;20048;-66
2021/04/23 08:31:44;;;;;;;8.02;2.40;;;31.80;20.10;;;;;;5074820;28;20505;-66
2021/04/23 08:34:11;;;;;;;10.23;2.30;;;;;;;;;;5052174;28;20524;-66
2021/04/23 08:36:37;;;;;;;7.93;2.17;;;32.20;19.80;;;;;;5058861;28;20051;-66
2021/04/23 08:39:10;;;;;;;7.97;2.05;;;32.50;18.90;;;;;;5073334;28;20780;-66
2021/04/23 08:41:37;;;;;;;10.07;2.13;;;32.70;18.10;;;;;;5067328;28;20035;-66
2021/04/23 08:44:05;;;;;;;11.93;2.55;;;33.10;18.70;;;;;;5057315;28;20051;-66
2021/04/23 08:46:39;;;;;;;7.63;2.28;;;33.60;18.50;;;;;;5043150;28;20094;-66
2021/04/23 08:49:06;;;;;;;9.73;2.63;;;34.10;18.20;;;;;;5067669;28;20038;-66
2021/04/23 08:51:34;;;;;;;10.02;3.05;;;34.40;17.90;;;;;;5077693;28;20041;-66
2021/04/23 08:54:00;;;;;;;8.73;2.95;;;;;;;;;;5071170;28;20039;-66
2021/04/23 08:56:29;;;;;;;12.20;2.92;;;34.40;18.00;;;;;;5053480;28;23680;-66
2021/04/23 08:58:54;;;;;;;10.30;2.90;;;32.00;18.40;;;;;;5077402;28;20043;-66
2021/04/23 09:01:20;;;;;;;10.32;2.90;;;30.50;19.60;;;;;;5073729;28;20044;-66
2021/04/23 09:03:48;;;;;;;13.32;2.90;;;29.60;20.30;;;;;;5047761;28;20071;-66
2021/04/23 09:06:21;;;;;;;12.30;3.15;;;28.40;21.10;;;;;;5064196;28;20578;-66
2021/04/23 09:08:55;;;;;;;6.47;2.00;;;28.10;22.10;;;;;;5080070;28;20071;-66
2021/04/23 09:11:27;;;;;;;7.10;2.22;;;28.80;21.10;;;;;;5060381;28;20582;-66
2021/04/23 09:13:58;;;;;;;10.75;2.58;;;29.60;20.40;;;;;;5075342;28;20044;-66
2021/04/23 09:16:45;;;;;;;8.60;2.70;;;30.30;20.10;;;;;;5047799;28;20063;-67
2021/04/23 09:19:20;;;;;;;14.07;2.92;;;31.10;19.70;;;;;;5032639;28;20075;-66
2021/04/23 09:21:49;;;;;;;8.75;2.75;;;31.90;19.00;;;;;;5039843;28;20040;-66
2021/04/23 09:24:19;;;;;;;6.97;2.88;;;;;;;;;;5059364;28;20105;-66
2021/04/23 09:26:49;;;;;;;8.63;2.80;;;32.10;19.20;;;;;;5045397;28;20110;-67
2021/04/23 09:29:28;;;;;;;9.93;2.53;;;31.00;19.70;;;;;;5065744;28;20032;-67
2021/04/23 09:31:54;;;;;;;8.35;2.83;;;30.90;19.80;;;;;;5061963;28;20119;-66
2021/04/23 09:34:22;;;;;;;12.80;3.25;;;31.30;19.70;;;;;;5062943;28;20044;-66
2021/04/23 09:36:50;;;;;;;10.45;2.25;;;31.70;19.20;;;;;;5064762;28;20574;-66
2021/04/23 09:39:24;;;;;;;9.65;2.47;;;31.80;18.40;;;;;;5071173;28;20120;-66
2021/04/23 09:42:02;;;;;;;13.02;2.42;;;31.50;18.70;;;;;;5059856;28;20036;-66
2021/04/23 09:44:42;;;;;;;7.63;2.20;;;31.00;19.00;;;;;;5051338;28;20089;-66
2021/04/23 09:47:35;;;;;;;10.75;2.60;;;31.30;19.60;;;;;;5063784;28;20052;-67
2021/04/23 09:50:00;;;;;;;7.38;2.33;;;31.90;18.70;;;;;;5063550;28;20047;-66
2021/04/23 09:52:28;;;;;;;14.18;2.88;;;31.80;19.30;;;;;;5071864;28;20576;-66
2021/04/23 09:55:04;;;;;;;10.35;2.70;;;31.90;19.40;;;;;;5062414;28;20123;-67
2021/04/23 09:57:40;;;;;;;9.38;2.53;;;32.20;19.00;;;;;;5052248;28;20114;-67
2021/04/23 10:00:11;;;;;;;10.02;2.72;;;;;;;;;;5065386;28;20048;-66
2021/04/23 10:02:38;;;;;;;9.10;2.63;;;;;;;;;;5063180;28;20085;-66
2021/04/23 10:05:05;;;;;;;9.20;3.13;;;31.40;18.70;;;;;;5054216;28;20087;-66
2021/04/23 10:07:35;;;;;;;11.00;3.08;;;;;;;;;;5054740;28;21064;-66
2021/04/23 10:10:05;;;;;;;10.85;2.75;;;31.00;19.70;;;;;;5063453;28;20040;-67
2021/04/23 10:12:37;;;;;;;8.13;2.70;;;30.50;19.20;;;;;;5053007;28;20035;-66
2021/04/23 10:15:18;;;;;;;11.32;3.00;;;29.40;19.40;;;;;;5069224;28;20172;-66
2021/04/23 10:17:48;;;;;;;5.00;2.40;;;;;;;;;;5068064;28;20706;-66
2021/04/23 10:20:19;;;;;;;11.35;2.75;;;28.50;20.50;;;;;;5054228;28;20129;-66
2021/04/23 10:22:47;;;;;;;13.40;2.67;;;29.40;20.70;;;;;;5065452;28;20042;-66
2021/04/23 10:25:13;;;;;;;13.63;4.18;;;29.50;20.00;;;;;;5053819;28;20036;-66
2021/04/23 10:27:42;;;;;;;7.93;2.70;;;29.40;20.10;;;;;;5070014;28;20123;-66
2021/04/23 10:30:17;;;;;;;10.18;2.88;;;29.80;20.10;;;;;;5062777;28;20028;-66
2021/04/23 10:32:48;;;;;;;7.47;2.28;;;30.60;20.20;;;;;;5041017;28;20032;-67
2021/04/23 10:35:17;;;;;;;16.63;6.20;;;31.50;19.20;;;;;;5050667;28;20036;-66
2021/04/23 10:37:44;;;;;;;13.52;3.03;;;32.40;18.80;;;;;;5055608;28;20760;-66
2021/04/23 10:40:12;;;;;;;7.20;2.60;;;33.10;18.40;;;;;;5062972;28;20036;-66
2021/04/23 10:42:43;;;;;;;12.25;2.97;;;33.20;17.70;;;;;;5060985;28;20031;-66
2021/04/23 10:45:40;;;;;;;11.07;2.72;;;32.50;18.00;;;;;;5062745;28;20089;-66
2021/04/23 10:48:36;;;;;;;11.40;2.78;;;31.70;18.30;;;;;;5065114;28;20036;-66
2021/04/23 10:51:25;;;;;;;9.60;2.42;;;31.00;18.60;;;;;;5041489;28;20032;-66
2021/04/23 10:54:15;;;;;;;5.65;1.58;;;30.40;19.40;;;;;;5057771;28;20028;-66
2021/04/23 10:56:51;;;;;;;10.23;1.80;;;30.40;18.40;;;;;;5041498;28;20157;-66
2021/04/23 10:59:23;;;;;;;7.38;1.70;;;30.40;18.40;;;;;;5060031;28;20043;-66
2021/04/23 11:01:51;;;;;;;9.55;2.33;;;30.40;18.30;;;;;;5035211;28;21087;-66
2021/04/23 11:04:20;;;;;;;6.50;2.72;;;30.40;18.70;;;;;;5057190;28;20113;-66
2021/04/23 11:07:03;;;;;;;11.02;2.75;;;30.40;19.40;;;;;;5059416;28;20036;-66
2021/04/23 11:09:29;;;;;;;9.23;2.45;;;30.40;19.00;;;;;;5059578;28;23252;-66
2021/04/23 11:12:13;;;;;;;11.60;2.80;;;30.30;19.50;;;;;;5050270;28;20736;-65
2021/04/23 11:14:40;;;;;;;16.38;2.80;;;29.70;20.10;;;;;;5054271;28;20032;-66
2021/04/23 11:17:18;;;;;;;10.02;2.70;;;;;;;;;;5052068;28;20493;-66
2021/04/23 11:19:51;;;;;;;4.75;1.77;;;;;;;;;;5051322;28;20141;-66
2021/04/23 11:22:21;;;;;;;8.32;1.83;;;;;;;;;;5051256;28;20036;-66
2021/04/23 11:25:01;;;;;;;8.20;2.00;;;;;;;;;;5060722;28;20085;-66
2021/04/23 11:27:29;;;;;;;8.73;2.10;;;28.90;20.00;;;;;;5058108;28;20086;-66
2021/04/23 11:29:57;;;;;;;10.95;2.47;;;26.70;21.30;;;;;;5061388;28;21932;-65
2021/04/23 11:32:33;;;;;;;8.43;2.50;;;26.10;22.00;;;;;;5048735;28;20122;-65
2021/04/23 11:35:11;;;;;;;8.63;2.17;;;25.60;22.70;;;;;;5061114;28;20112;-65
2021/04/23 11:37:46;;;;;;;9.95;2.65;;;25.20;23.50;;;;;;5058112;28;20040;-65
2021/04/23 11:40:20;;;;;;;12.23;2.78;;;24.80;23.20;;;;;;5055633;28;20269;-65
2021/04/23 11:42:50;;;;;;;7.75;2.53;;;24.40;24.10;;;;;;5061144;28;20055;-66
2021/04/23 11:45:34;;;;;;;8.18;2.45;;;24.20;24.30;;;;;;5063476;28;20632;-66
2021/04/23 11:48:08;;;;;;;8.68;2.28;;;24.20;24.80;;;;;;5063652;28;20085;-65
2021/04/23 11:50:38;;;;;;;10.32;2.53;;;24.30;24.70;;;;;;5060874;28;20093;-65
2021/04/23 11:53:10;;;;;;;10.55;2.80;;;24.40;24.40;;;;;;5055836;28;20081;-66
2021/04/23 11:55:41;;;;;;;8.95;2.67;;;24.20;24.40;;;;;;5059347;28;20040;-66
2021/04/23 11:58:21;;;;;;;7.15;2.33;;;24.00;24.60;;;;;;5059261;28;20130;-66
2021/04/23 12:00:56;;;;;;;6.00;1.90;;;24.00;24.60;;;;;;5044676;28;20592;-66
2021/04/23 12:03:22;;;;;;;5.38;2.15;;;24.00;24.20;;;;;;5061453;28;20473;-65
2021/04/23 12:05:49;;;;;;;7.55;2.33;;;23.90;24.00;;;;;;5050457;28;20512;-65
2021/04/23 12:08:21;;;;;;;11.35;2.97;;;23.80;24.30;;;;;;5070303;28;20079;-65
2021/04/23 12:10:53;;;;;;;10.40;2.58;;;23.80;24.90;;;;;;5052475;28;20590;-65
2021/04/23 12:13:19;;;;;;;8.70;2.00;;;23.90;25.40;;;;;;5066813;28;20043;-66
2021/04/23 12:15:48;;;;;;;6.18;1.95;;;24.00;24.70;;;;;;5038964;28;20035;-66
2021/04/23 12:18:14;;;;;;;12.60;2.30;;;24.00;24.40;;;;;;5059181;28;20040;-66
2021/04/23 12:20:43;;;;;;;10.02;2.63;;;23.90;24.30;;;;;;5062394;28;20345;-66
2021/04/23 12:23:12;;;;;;;6.53;2.20;;;23.90;24.20;;;;;;5048045;28;20071;-66
2021/04/23 12:25:49;;;;;;;5.72;2.33;;;23.90;24.00;;;;;;5037737;28;20436;-66
2021/04/23 12:28:25;;;;;;;11.25;2.40;;;24.00;24.30;;;;;;5062105;28;20118;-66
2021/04/23 12:33:59;;;;;;;6.65;2.28;;;24.00;24.80;;;;;;5062503;28;20356;-66
2021/04/23 12:36:32;;;;;;;8.00;2.90;;;24.00;24.60;;;;;;5059181;28;20283;-65
2021/04/23 12:39:05;;;;;;;6.88;2.63;;;24.10;24.20;;;;;;5061025;28;20036;-65
2021/04/23 12:41:40;;;;;;;9.70;2.28;;;24.10;24.00;;;;;;5056656;28;20068;-66
2021/04/23 12:44:21;;;;;;;11.35;2.35;;;24.10;24.60;;;;;;5063441;28;20097;-66
2021/04/23 12:46:52;;;;;;;7.80;2.30;;;23.90;24.30;;;;;;5038118;28;20032;-66
2021/04/23 12:49:27;;;;;;;6.80;2.03;;;23.70;24.20;;;;;;5065876;28;20052;-66
2021/04/23 12:52:07;;;;;;;5.78;2.33;;;23.50;24.70;;;;;;5049425;28;20236;-66
2021/04/23 12:54:35;;;;;;;9.35;2.67;;;23.40;24.80;;;;;;5061291;28;20889;-66
2021/04/23 12:57:08;;;;;;;7.55;2.53;;;23.20;24.80;;;;;;5056963;28;20040;-66
2021/04/23 12:59:45;;;;;;;8.18;2.85;;;22.90;24.90;;;;;;5056970;28;20143;-65
2021/04/23 13:02:28;;;;;;;9.25;2.22;;;22.70;24.90;;;;;;5064987;28;20115;-65